sensor_id;sensor_type;location;lat;lon;timestamp;P1;durP1;ratioP1;P2;durP2;ratioP2
24617;SDS011;12762;51.730;5.356;2023-04-24T00:01:57;17.17;;;10.10;;
24617;SDS011;12762;51.730;5.356;2023-04-24T00:04:24;13.30;;;9.30;;
24617;SDS011;12762;51.730;5.356;2023-04-24T00:06:52;16.37;;;9.43;;
24617;SDS011;12762;51.730;5.356;2023-04-24T00:09:23;17.67;;;10.33;;
24617;SDS011;12762;51.730;5.356;2023-04-24T00:11:50;18.60;;;11.37;;
24617;SDS011;12762;51.730;5.356;2023-04-24T00:14:17;19.80;;;11.37;;
24617;SDS011;12762;51.730;5.356;2023-04-24T00:16:44;20.30;;;11.60;;
24617;SDS011;12762;51.730;5.356;2023-04-24T00:19:17;20.40;;;12.03;;
24617;SDS011;12762;51.730;5.356;2023-04-24T00:21:47;28.77;;;14.77;;
24617;SDS011;12762;51.730;5.356;2023-04-24T00:24:17;25.83;;;14.77;;
24617;SDS011;12762;51.730;5.356;2023-04-24T00:26:44;29.53;;;16.17;;
24617;SDS011;12762;51.730;5.356;2023-04-24T00:29:11;33.53;;;17.27;;
24617;SDS011;12762;51.730;5.356;2023-04-24T00:31:40;31.20;;;16.73;;
24617;SDS011;12762;51.730;5.356;2023-04-24T00:34:06;29.77;;;17.73;;
24617;SDS011;12762;51.730;5.356;2023-04-24T00:36:33;32.20;;;17.57;;
24617;SDS011;12762;51.730;5.356;2023-04-24T00:39:01;30.67;;;16.80;;
24617;SDS011;12762;51.730;5.356;2023-04-24T00:41:29;27.53;;;15.03;;
24617;SDS011;12762;51.730;5.356;2023-04-24T00:43:57;25.77;;;15.13;;
24617;SDS011;12762;51.730;5.356;2023-04-24T00:46:24;26.07;;;15.80;;
24617;SDS011;12762;51.730;5.356;2023-04-24T00:48:51;25.70;;;14.80;;
24617;SDS011;12762;51.730;5.356;2023-04-24T00:51:18;25.87;;;14.90;;
24617;SDS011;12762;51.730;5.356;2023-04-24T00:53:46;24.23;;;14.73;;
24617;SDS011;12762;51.730;5.356;2023-04-24T00:56:13;22.13;;;13.63;;
24617;SDS011;12762;51.730;5.356;2023-04-24T00:58:40;26.93;;;15.37;;
24617;SDS011;12762;51.730;5.356;2023-04-24T01:01:08;25.07;;;15.43;;
24617;SDS011;12762;51.730;5.356;2023-04-24T01:03:37;25.67;;;14.47;;
24617;SDS011;12762;51.730;5.356;2023-04-24T01:06:05;22.77;;;13.90;;
24617;SDS011;12762;51.730;5.356;2023-04-24T01:08:33;22.20;;;14.70;;
24617;SDS011;12762;51.730;5.356;2023-04-24T01:11:02;25.27;;;15.03;;
24617;SDS011;12762;51.730;5.356;2023-04-24T01:13:30;21.10;;;13.77;;
24617;SDS011;12762;51.730;5.356;2023-04-24T01:15:58;24.63;;;14.70;;
24617;SDS011;12762;51.730;5.356;2023-04-24T01:18:27;24.73;;;15.37;;
24617;SDS011;12762;51.730;5.356;2023-04-24T01:20:57;25.27;;;14.73;;
24617;SDS011;12762;51.730;5.356;2023-04-24T01:23:25;25.73;;;15.33;;
24617;SDS011;12762;51.730;5.356;2023-04-24T01:25:53;26.63;;;16.20;;
24617;SDS011;12762;51.730;5.356;2023-04-24T01:28:20;26.50;;;17.03;;
24617;SDS011;12762;51.730;5.356;2023-04-24T01:30:47;27.23;;;17.50;;
24617;SDS011;12762;51.730;5.356;2023-04-24T01:33:14;28.77;;;18.47;;
24617;SDS011;12762;51.730;5.356;2023-04-24T01:35:42;28.70;;;18.43;;
24617;SDS011;12762;51.730;5.356;2023-04-24T01:38:09;30.63;;;18.70;;
24617;SDS011;12762;51.730;5.356;2023-04-24T01:40:36;31.53;;;18.40;;
24617;SDS011;12762;51.730;5.356;2023-04-24T01:43:04;31.37;;;19.77;;
24617;SDS011;12762;51.730;5.356;2023-04-24T01:45:31;31.03;;;18.23;;
24617;SDS011;12762;51.730;5.356;2023-04-24T01:47:58;27.80;;;17.83;;
24617;SDS011;12762;51.730;5.356;2023-04-24T01:50:25;29.43;;;18.10;;
24617;SDS011;12762;51.730;5.356;2023-04-24T01:52:52;26.40;;;16.17;;
24617;SDS011;12762;51.730;5.356;2023-04-24T01:55:19;25.83;;;16.20;;
24617;SDS011;12762;51.730;5.356;2023-04-24T01:57:46;26.10;;;15.83;;
24617;SDS011;12762;51.730;5.356;2023-04-24T02:00:16;28.57;;;16.63;;
24617;SDS011;12762;51.730;5.356;2023-04-24T02:02:43;23.80;;;14.97;;
24617;SDS011;12762;51.730;5.356;2023-04-24T02:05:13;24.33;;;15.73;;
24617;SDS011;12762;51.730;5.356;2023-04-24T02:07:40;26.40;;;14.80;;
24617;SDS011;12762;51.730;5.356;2023-04-24T02:10:07;24.50;;;15.17;;
24617;SDS011;12762;51.730;5.356;2023-04-24T02:12:34;30.00;;;17.73;;
24617;SDS011;12762;51.730;5.356;2023-04-24T02:15:01;30.23;;;18.53;;
24617;SDS011;12762;51.730;5.356;2023-04-24T02:17:29;28.33;;;17.53;;
24617;SDS011;12762;51.730;5.356;2023-04-24T02:19:57;33.03;;;19.43;;
24617;SDS011;12762;51.730;5.356;2023-04-24T02:22:23;28.10;;;18.27;;
24617;SDS011;12762;51.730;5.356;2023-04-24T02:24:50;31.77;;;18.67;;
24617;SDS011;12762;51.730;5.356;2023-04-24T02:27:17;30.00;;;18.23;;
24617;SDS011;12762;51.730;5.356;2023-04-24T02:29:44;32.47;;;18.90;;
24617;SDS011;12762;51.730;5.356;2023-04-24T02:32:11;32.73;;;18.40;;
24617;SDS011;12762;51.730;5.356;2023-04-24T02:34:38;29.37;;;18.03;;
24617;SDS011;12762;51.730;5.356;2023-04-24T02:37:05;29.13;;;16.97;;
24617;SDS011;12762;51.730;5.356;2023-04-24T02:39:32;26.50;;;17.80;;
24617;SDS011;12762;51.730;5.356;2023-04-24T02:41:59;29.37;;;17.90;;
24617;SDS011;12762;51.730;5.356;2023-04-24T02:44:26;32.53;;;18.53;;
24617;SDS011;12762;51.730;5.356;2023-04-24T02:46:53;30.67;;;18.07;;
24617;SDS011;12762;51.730;5.356;2023-04-24T02:49:20;34.33;;;19.37;;
24617;SDS011;12762;51.730;5.356;2023-04-24T02:51:49;31.30;;;17.57;;
24617;SDS011;12762;51.730;5.356;2023-04-24T02:54:16;29.13;;;18.37;;
24617;SDS011;12762;51.730;5.356;2023-04-24T02:56:43;33.13;;;19.00;;
24617;SDS011;12762;51.730;5.356;2023-04-24T02:59:10;34.63;;;19.97;;
24617;SDS011;12762;51.730;5.356;2023-04-24T03:01:36;35.60;;;20.60;;
24617;SDS011;12762;51.730;5.356;2023-04-24T03:04:04;34.67;;;20.20;;
24617;SDS011;12762;51.730;5.356;2023-04-24T03:06:31;38.73;;;21.77;;
24617;SDS011;12762;51.730;5.356;2023-04-24T03:08:59;37.77;;;22.10;;
24617;SDS011;12762;51.730;5.356;2023-04-24T03:11:26;34.90;;;21.70;;
24617;SDS011;12762;51.730;5.356;2023-04-24T03:13:52;36.17;;;21.33;;
24617;SDS011;12762;51.730;5.356;2023-04-24T03:16:19;34.37;;;19.40;;
24617;SDS011;12762;51.730;5.356;2023-04-24T03:18:46;30.73;;;18.93;;
24617;SDS011;12762;51.730;5.356;2023-04-24T03:21:13;28.97;;;17.97;;
24617;SDS011;12762;51.730;5.356;2023-04-24T03:23:40;29.70;;;17.90;;
24617;SDS011;12762;51.730;5.356;2023-04-24T03:26:07;31.40;;;17.77;;
24617;SDS011;12762;51.730;5.356;2023-04-24T03:28:33;34.20;;;18.30;;
24617;SDS011;12762;51.730;5.356;2023-04-24T03:31:00;31.00;;;17.43;;
24617;SDS011;12762;51.730;5.356;2023-04-24T03:33:32;29.43;;;16.63;;
24617;SDS011;12762;51.730;5.356;2023-04-24T03:35:59;27.10;;;16.63;;
24617;SDS011;12762;51.730;5.356;2023-04-24T03:38:25;29.60;;;16.77;;
24617;SDS011;12762;51.730;5.356;2023-04-24T03:40:52;27.77;;;16.90;;
24617;SDS011;12762;51.730;5.356;2023-04-24T03:43:19;29.90;;;17.07;;
24617;SDS011;12762;51.730;5.356;2023-04-24T03:45:46;29.60;;;17.37;;
24617;SDS011;12762;51.730;5.356;2023-04-24T03:48:13;29.73;;;17.63;;
24617;SDS011;12762;51.730;5.356;2023-04-24T03:50:40;31.33;;;18.13;;
24617;SDS011;12762;51.730;5.356;2023-04-24T03:53:07;26.07;;;16.97;;
24617;SDS011;12762;51.730;5.356;2023-04-24T03:55:34;27.70;;;17.33;;
24617;SDS011;12762;51.730;5.356;2023-04-24T03:58:01;27.23;;;17.23;;
24617;SDS011;12762;51.730;5.356;2023-04-24T04:00:28;26.30;;;16.17;;
24617;SDS011;12762;51.730;5.356;2023-04-24T04:02:57;28.57;;;16.80;;
24617;SDS011;12762;51.730;5.356;2023-04-24T04:05:24;27.13;;;16.83;;
24617;SDS011;12762;51.730;5.356;2023-04-24T04:07:51;26.50;;;17.40;;
24617;SDS011;12762;51.730;5.356;2023-04-24T04:10:18;29.00;;;17.17;;
24617;SDS011;12762;51.730;5.356;2023-04-24T04:12:45;31.23;;;17.37;;
24617;SDS011;12762;51.730;5.356;2023-04-24T04:15:12;29.03;;;16.40;;
24617;SDS011;12762;51.730;5.356;2023-04-24T04:17:42;26.50;;;16.37;;
24617;SDS011;12762;51.730;5.356;2023-04-24T04:20:12;34.57;;;16.77;;
24617;SDS011;12762;51.730;5.356;2023-04-24T04:22:42;26.60;;;15.70;;
24617;SDS011;12762;51.730;5.356;2023-04-24T04:25:10;26.00;;;15.60;;
24617;SDS011;12762;51.730;5.356;2023-04-24T04:27:37;24.80;;;15.47;;
24617;SDS011;12762;51.730;5.356;2023-04-24T04:30:05;25.37;;;15.20;;
24617;SDS011;12762;51.730;5.356;2023-04-24T04:32:32;23.53;;;13.93;;
24617;SDS011;12762;51.730;5.356;2023-04-24T04:35:00;26.90;;;14.10;;
24617;SDS011;12762;51.730;5.356;2023-04-24T04:37:29;25.20;;;14.50;;
24617;SDS011;12762;51.730;5.356;2023-04-24T04:39:57;21.73;;;13.20;;
24617;SDS011;12762;51.730;5.356;2023-04-24T04:42:25;19.03;;;11.63;;
24617;SDS011;12762;51.730;5.356;2023-04-24T04:44:53;17.97;;;11.67;;
24617;SDS011;12762;51.730;5.356;2023-04-24T04:47:20;15.23;;;9.30;;
24617;SDS011;12762;51.730;5.356;2023-04-24T04:49:51;15.50;;;9.63;;
24617;SDS011;12762;51.730;5.356;2023-04-24T04:52:18;13.53;;;9.03;;
24617;SDS011;12762;51.730;5.356;2023-04-24T04:54:45;13.10;;;7.87;;
24617;SDS011;12762;51.730;5.356;2023-04-24T04:57:12;9.67;;;6.20;;
24617;SDS011;12762;51.730;5.356;2023-04-24T04:59:42;10.37;;;6.10;;
24617;SDS011;12762;51.730;5.356;2023-04-24T05:02:10;10.13;;;6.47;;
24617;SDS011;12762;51.730;5.356;2023-04-24T05:04:37;10.63;;;6.60;;
24617;SDS011;12762;51.730;5.356;2023-04-24T05:07:04;11.47;;;5.60;;
24617;SDS011;12762;51.730;5.356;2023-04-24T05:09:34;13.47;;;6.40;;
24617;SDS011;12762;51.730;5.356;2023-04-24T05:12:04;8.60;;;4.90;;
24617;SDS011;12762;51.730;5.356;2023-04-24T05:14:31;10.63;;;5.10;;
24617;SDS011;12762;51.730;5.356;2023-04-24T05:16:58;8.83;;;5.23;;
24617;SDS011;12762;51.730;5.356;2023-04-24T05:19:26;8.43;;;4.93;;
24617;SDS011;12762;51.730;5.356;2023-04-24T05:21:53;8.93;;;4.23;;
24617;SDS011;12762;51.730;5.356;2023-04-24T05:24:22;8.60;;;4.50;;
24617;SDS011;12762;51.730;5.356;2023-04-24T05:26:49;7.10;;;4.03;;
24617;SDS011;12762;51.730;5.356;2023-04-24T05:29:16;8.17;;;4.00;;
24617;SDS011;12762;51.730;5.356;2023-04-24T05:31:47;4.73;;;2.47;;
24617;SDS011;12762;51.730;5.356;2023-04-24T05:34:14;4.37;;;2.00;;
24617;SDS011;12762;51.730;5.356;2023-04-24T05:36:42;5.10;;;1.97;;
24617;SDS011;12762;51.730;5.356;2023-04-24T05:39:12;3.17;;;1.70;;
24617;SDS011;12762;51.730;5.356;2023-04-24T05:41:39;3.27;;;1.97;;
24617;SDS011;12762;51.730;5.356;2023-04-24T05:44:06;2.53;;;1.50;;
24617;SDS011;12762;51.730;5.356;2023-04-24T05:46:33;1.97;;;1.30;;
24617;SDS011;12762;51.730;5.356;2023-04-24T05:49:01;2.87;;;1.30;;
24617;SDS011;12762;51.730;5.356;2023-04-24T05:51:31;1.90;;;0.83;;
24617;SDS011;12762;51.730;5.356;2023-04-24T05:53:57;1.83;;;0.97;;
24617;SDS011;12762;51.730;5.356;2023-04-24T05:56:24;1.40;;;0.80;;
24617;SDS011;12762;51.730;5.356;2023-04-24T05:58:51;1.00;;;0.70;;
24617;SDS011;12762;51.730;5.356;2023-04-24T06:01:20;1.10;;;0.77;;
24617;SDS011;12762;51.730;5.356;2023-04-24T06:03:48;2.10;;;0.70;;
24617;SDS011;12762;51.730;5.356;2023-04-24T06:06:15;2.67;;;0.70;;
24617;SDS011;12762;51.730;5.356;2023-04-24T06:08:42;1.23;;;0.60;;
24617;SDS011;12762;51.730;5.356;2023-04-24T06:11:10;1.53;;;0.60;;
24617;SDS011;12762;51.730;5.356;2023-04-24T06:13:37;1.27;;;0.60;;
24617;SDS011;12762;51.730;5.356;2023-04-24T06:16:04;2.70;;;0.40;;
24617;SDS011;12762;51.730;5.356;2023-04-24T06:18:31;1.60;;;0.50;;
24617;SDS011;12762;51.730;5.356;2023-04-24T06:20:58;0.67;;;0.50;;
24617;SDS011;12762;51.730;5.356;2023-04-24T06:23:25;1.27;;;0.70;;
24617;SDS011;12762;51.730;5.356;2023-04-24T06:25:52;2.47;;;0.70;;
24617;SDS011;12762;51.730;5.356;2023-04-24T06:28:19;1.57;;;0.70;;
24617;SDS011;12762;51.730;5.356;2023-04-24T06:30:46;0.67;;;0.67;;
24617;SDS011;12762;51.730;5.356;2023-04-24T06:33:13;1.87;;;0.80;;
24617;SDS011;12762;51.730;5.356;2023-04-24T06:35:47;2.27;;;1.30;;
24617;SDS011;12762;51.730;5.356;2023-04-24T06:38:17;2.80;;;1.30;;
24617;SDS011;12762;51.730;5.356;2023-04-24T06:40:43;2.33;;;1.30;;
24617;SDS011;12762;51.730;5.356;2023-04-24T06:43:11;4.77;;;2.47;;
24617;SDS011;12762;51.730;5.356;2023-04-24T06:45:38;6.50;;;3.47;;
24617;SDS011;12762;51.730;5.356;2023-04-24T06:48:06;7.00;;;3.40;;
24617;SDS011;12762;51.730;5.356;2023-04-24T06:50:33;6.17;;;3.97;;
24617;SDS011;12762;51.730;5.356;2023-04-24T06:53:00;8.60;;;4.97;;
24617;SDS011;12762;51.730;5.356;2023-04-24T06:55:26;12.33;;;6.07;;
24617;SDS011;12762;51.730;5.356;2023-04-24T06:57:53;12.90;;;6.50;;
24617;SDS011;12762;51.730;5.356;2023-04-24T07:00:23;12.47;;;6.90;;
24617;SDS011;12762;51.730;5.356;2023-04-24T07:02:50;15.10;;;7.30;;
24617;SDS011;12762;51.730;5.356;2023-04-24T07:05:17;13.03;;;7.27;;
24617;SDS011;12762;51.730;5.356;2023-04-24T07:07:47;16.47;;;7.50;;
24617;SDS011;12762;51.730;5.356;2023-04-24T07:10:14;16.93;;;8.53;;
24617;SDS011;12762;51.730;5.356;2023-04-24T07:12:40;15.87;;;7.90;;
24617;SDS011;12762;51.730;5.356;2023-04-24T07:15:08;15.07;;;8.23;;
24617;SDS011;12762;51.730;5.356;2023-04-24T07:17:35;16.83;;;8.33;;
24617;SDS011;12762;51.730;5.356;2023-04-24T07:20:02;21.50;;;8.50;;
24617;SDS011;12762;51.730;5.356;2023-04-24T07:22:30;15.50;;;8.27;;
24617;SDS011;12762;51.730;5.356;2023-04-24T07:24:57;16.17;;;7.83;;
24617;SDS011;12762;51.730;5.356;2023-04-24T07:27:24;17.33;;;8.30;;
24617;SDS011;12762;51.730;5.356;2023-04-24T07:29:51;19.87;;;7.50;;
24617;SDS011;12762;51.730;5.356;2023-04-24T07:32:18;16.10;;;7.67;;
24617;SDS011;12762;51.730;5.356;2023-04-24T07:34:45;14.27;;;7.60;;
24617;SDS011;12762;51.730;5.356;2023-04-24T07:37:12;13.00;;;7.63;;
24617;SDS011;12762;51.730;5.356;2023-04-24T07:39:39;16.57;;;8.10;;
24617;SDS011;12762;51.730;5.356;2023-04-24T07:42:06;16.77;;;6.73;;
24617;SDS011;12762;51.730;5.356;2023-04-24T07:44:33;14.40;;;6.63;;
24617;SDS011;12762;51.730;5.356;2023-04-24T07:47:02;17.00;;;7.43;;
24617;SDS011;12762;51.730;5.356;2023-04-24T07:49:32;18.47;;;6.80;;
24617;SDS011;12762;51.730;5.356;2023-04-24T07:52:00;13.83;;;6.03;;
24617;SDS011;12762;51.730;5.356;2023-04-24T07:54:28;19.30;;;5.83;;
24617;SDS011;12762;51.730;5.356;2023-04-24T07:56:55;18.00;;;6.30;;
24617;SDS011;12762;51.730;5.356;2023-04-24T07:59:22;20.20;;;5.07;;
24617;SDS011;12762;51.730;5.356;2023-04-24T08:01:49;24.43;;;6.00;;
24617;SDS011;12762;51.730;5.356;2023-04-24T08:04:16;17.87;;;5.20;;
24617;SDS011;12762;51.730;5.356;2023-04-24T08:06:44;16.10;;;5.77;;
24617;SDS011;12762;51.730;5.356;2023-04-24T08:09:11;15.90;;;5.50;;
24617;SDS011;12762;51.730;5.356;2023-04-24T08:11:40;15.40;;;4.80;;
24617;SDS011;12762;51.730;5.356;2023-04-24T08:14:10;18.53;;;5.33;;
24617;SDS011;12762;51.730;5.356;2023-04-24T08:16:39;13.30;;;4.43;;
24617;SDS011;12762;51.730;5.356;2023-04-24T08:19:06;15.93;;;4.10;;
24617;SDS011;12762;51.730;5.356;2023-04-24T08:21:36;10.23;;;3.40;;
24617;SDS011;12762;51.730;5.356;2023-04-24T08:24:03;10.03;;;3.37;;
24617;SDS011;12762;51.730;5.356;2023-04-24T08:26:34;12.20;;;3.50;;
24617;SDS011;12762;51.730;5.356;2023-04-24T08:29:01;10.83;;;3.40;;
24617;SDS011;12762;51.730;5.356;2023-04-24T08:31:28;10.07;;;2.93;;
24617;SDS011;12762;51.730;5.356;2023-04-24T08:33:55;16.47;;;3.70;;
24617;SDS011;12762;51.730;5.356;2023-04-24T08:36:22;16.23;;;3.43;;
24617;SDS011;12762;51.730;5.356;2023-04-24T08:38:58;12.57;;;3.00;;
24617;SDS011;12762;51.730;5.356;2023-04-24T08:41:26;13.47;;;3.50;;
24617;SDS011;12762;51.730;5.356;2023-04-24T08:44:00;10.43;;;3.10;;
24617;SDS011;12762;51.730;5.356;2023-04-24T08:46:29;14.13;;;3.23;;
24617;SDS011;12762;51.730;5.356;2023-04-24T08:48:57;12.93;;;3.00;;
24617;SDS011;12762;51.730;5.356;2023-04-24T08:51:24;15.73;;;2.87;;
24617;SDS011;12762;51.730;5.356;2023-04-24T08:53:53;18.10;;;3.27;;
24617;SDS011;12762;51.730;5.356;2023-04-24T08:56:21;11.80;;;3.30;;
24617;SDS011;12762;51.730;5.356;2023-04-24T08:58:50;10.97;;;3.10;;
24617;SDS011;12762;51.730;5.356;2023-04-24T09:01:23;10.47;;;2.87;;
24617;SDS011;12762;51.730;5.356;2023-04-24T09:03:51;11.77;;;3.30;;
24617;SDS011;12762;51.730;5.356;2023-04-24T09:06:20;15.17;;;3.20;;
24617;SDS011;12762;51.730;5.356;2023-04-24T09:08:49;14.10;;;3.10;;
24617;SDS011;12762;51.730;5.356;2023-04-24T09:11:17;15.23;;;3.87;;
24617;SDS011;12762;51.730;5.356;2023-04-24T09:13:44;13.73;;;2.83;;
24617;SDS011;12762;51.730;5.356;2023-04-24T09:16:11;14.53;;;2.47;;
24617;SDS011;12762;51.730;5.356;2023-04-24T09:18:40;12.80;;;2.57;;
24617;SDS011;12762;51.730;5.356;2023-04-24T09:21:07;7.43;;;2.30;;
24617;SDS011;12762;51.730;5.356;2023-04-24T09:23:37;8.07;;;1.93;;
24617;SDS011;12762;51.730;5.356;2023-04-24T09:26:08;9.63;;;2.20;;
24617;SDS011;12762;51.730;5.356;2023-04-24T09:28:37;6.47;;;1.90;;
24617;SDS011;12762;51.730;5.356;2023-04-24T09:31:07;6.10;;;1.80;;
24617;SDS011;12762;51.730;5.356;2023-04-24T09:33:35;7.20;;;1.93;;
24617;SDS011;12762;51.730;5.356;2023-04-24T09:36:03;6.37;;;2.10;;
24617;SDS011;12762;51.730;5.356;2023-04-24T09:38:36;5.70;;;1.97;;
24617;SDS011;12762;51.730;5.356;2023-04-24T09:41:05;8.90;;;2.30;;
24617;SDS011;12762;51.730;5.356;2023-04-24T09:43:34;8.43;;;2.00;;
24617;SDS011;12762;51.730;5.356;2023-04-24T09:46:05;10.83;;;2.37;;
24617;SDS011;12762;51.730;5.356;2023-04-24T09:48:34;9.07;;;2.27;;
24617;SDS011;12762;51.730;5.356;2023-04-24T09:51:10;7.83;;;2.40;;
24617;SDS011;12762;51.730;5.356;2023-04-24T09:53:39;9.37;;;1.93;;
24617;SDS011;12762;51.730;5.356;2023-04-24T09:56:12;9.57;;;2.03;;
24617;SDS011;12762;51.730;5.356;2023-04-24T09:58:39;12.40;;;2.20;;
24617;SDS011;12762;51.730;5.356;2023-04-24T10:01:06;7.97;;;2.10;;
24617;SDS011;12762;51.730;5.356;2023-04-24T10:03:33;8.37;;;1.63;;
24617;SDS011;12762;51.730;5.356;2023-04-24T10:06:01;8.47;;;2.10;;
24617;SDS011;12762;51.730;5.356;2023-04-24T10:08:35;9.80;;;1.70;;
24617;SDS011;12762;51.730;5.356;2023-04-24T10:11:03;10.67;;;2.03;;
24617;SDS011;12762;51.730;5.356;2023-04-24T10:13:31;8.50;;;1.60;;
24617;SDS011;12762;51.730;5.356;2023-04-24T10:15:59;5.97;;;1.50;;
24617;SDS011;12762;51.730;5.356;2023-04-24T10:18:29;4.07;;;1.20;;
24617;SDS011;12762;51.730;5.356;2023-04-24T10:20:56;2.20;;;1.10;;
24617;SDS011;12762;51.730;5.356;2023-04-24T10:23:26;7.53;;;1.30;;
24617;SDS011;12762;51.730;5.356;2023-04-24T10:25:54;4.27;;;1.03;;
24617;SDS011;12762;51.730;5.356;2023-04-24T10:28:21;2.77;;;1.00;;
24617;SDS011;12762;51.730;5.356;2023-04-24T10:30:50;3.17;;;0.83;;
24617;SDS011;12762;51.730;5.356;2023-04-24T10:33:21;4.90;;;1.03;;
24617;SDS011;12762;51.730;5.356;2023-04-24T10:35:49;2.27;;;0.73;;
24617;SDS011;12762;51.730;5.356;2023-04-24T10:38:24;2.60;;;0.70;;
24617;SDS011;12762;51.730;5.356;2023-04-24T10:40:57;4.37;;;0.70;;
24617;SDS011;12762;51.730;5.356;2023-04-24T10:43:35;4.03;;;0.70;;
24617;SDS011;12762;51.730;5.356;2023-04-24T10:46:03;2.00;;;0.70;;
24617;SDS011;12762;51.730;5.356;2023-04-24T10:48:32;4.30;;;0.80;;
24617;SDS011;12762;51.730;5.356;2023-04-24T10:51:00;4.90;;;0.90;;
24617;SDS011;12762;51.730;5.356;2023-04-24T10:53:28;2.87;;;0.93;;
24617;SDS011;12762;51.730;5.356;2023-04-24T10:56:03;2.93;;;0.80;;
24617;SDS011;12762;51.730;5.356;2023-04-24T10:58:36;1.13;;;0.63;;
24617;SDS011;12762;51.730;5.356;2023-04-24T11:01:25;4.43;;;0.83;;
24617;SDS011;12762;51.730;5.356;2023-04-24T11:03:57;3.13;;;0.57;;
24617;SDS011;12762;51.730;5.356;2023-04-24T11:06:43;2.33;;;0.87;;
24617;SDS011;12762;51.730;5.356;2023-04-24T11:09:10;1.87;;;0.50;;
24617;SDS011;12762;51.730;5.356;2023-04-24T11:11:45;3.93;;;0.63;;
24617;SDS011;12762;51.730;5.356;2023-04-24T11:14:16;5.43;;;0.67;;
24617;SDS011;12762;51.730;5.356;2023-04-24T11:16:52;8.03;;;0.70;;
24617;SDS011;12762;51.730;5.356;2023-04-24T11:19:23;4.23;;;0.70;;
24617;SDS011;12762;51.730;5.356;2023-04-24T11:29:58;2.03;;;0.60;;
24617;SDS011;12762;51.730;5.356;2023-04-24T11:32:33;4.70;;;0.90;;
24617;SDS011;12762;51.730;5.356;2023-04-24T11:35:17;3.47;;;0.90;;
24617;SDS011;12762;51.730;5.356;2023-04-24T11:37:54;3.00;;;0.97;;
24617;SDS011;12762;51.730;5.356;2023-04-24T11:40:24;6.00;;;0.90;;
24617;SDS011;12762;51.730;5.356;2023-04-24T11:42:54;6.23;;;0.87;;
24617;SDS011;12762;51.730;5.356;2023-04-24T11:45:26;3.07;;;0.87;;
24617;SDS011;12762;51.730;5.356;2023-04-24T11:47:56;3.07;;;0.60;;
24617;SDS011;12762;51.730;5.356;2023-04-24T11:50:24;3.43;;;0.80;;
24617;SDS011;12762;51.730;5.356;2023-04-24T11:52:52;5.67;;;0.97;;
24617;SDS011;12762;51.730;5.356;2023-04-24T11:57:47;5.00;;;1.00;;
24617;SDS011;12762;51.730;5.356;2023-04-24T12:00:16;3.97;;;0.90;;
24617;SDS011;12762;51.730;5.356;2023-04-24T12:02:45;5.80;;;1.20;;
24617;SDS011;12762;51.730;5.356;2023-04-24T12:05:23;3.97;;;1.13;;
24617;SDS011;12762;51.730;5.356;2023-04-24T12:08:01;4.47;;;1.20;;
24617;SDS011;12762;51.730;5.356;2023-04-24T12:10:29;4.73;;;0.80;;
24617;SDS011;12762;51.730;5.356;2023-04-24T12:12:57;5.10;;;1.60;;
24617;SDS011;12762;51.730;5.356;2023-04-24T12:15:25;5.37;;;1.13;;
24617;SDS011;12762;51.730;5.356;2023-04-24T12:17:53;5.13;;;1.30;;
24617;SDS011;12762;51.730;5.356;2023-04-24T12:20:24;4.97;;;1.17;;
24617;SDS011;12762;51.730;5.356;2023-04-24T12:22:56;4.63;;;0.90;;
24617;SDS011;12762;51.730;5.356;2023-04-24T12:25:24;4.70;;;1.03;;
24617;SDS011;12762;51.730;5.356;2023-04-24T12:27:53;3.40;;;0.87;;
24617;SDS011;12762;51.730;5.356;2023-04-24T12:30:26;3.73;;;1.20;;
24617;SDS011;12762;51.730;5.356;2023-04-24T12:32:59;3.60;;;1.10;;
24617;SDS011;12762;51.730;5.356;2023-04-24T12:35:27;7.63;;;1.20;;
24617;SDS011;12762;51.730;5.356;2023-04-24T12:37:56;2.63;;;0.97;;
24617;SDS011;12762;51.730;5.356;2023-04-24T12:40:35;6.40;;;1.10;;
24617;SDS011;12762;51.730;5.356;2023-04-24T12:43:02;4.13;;;1.33;;
24617;SDS011;12762;51.730;5.356;2023-04-24T12:45:39;5.80;;;1.00;;
24617;SDS011;12762;51.730;5.356;2023-04-24T12:48:05;6.27;;;1.00;;
24617;SDS011;12762;51.730;5.356;2023-04-24T12:50:32;3.77;;;0.83;;
24617;SDS011;12762;51.730;5.356;2023-04-24T12:52:59;3.60;;;1.10;;
24617;SDS011;12762;51.730;5.356;2023-04-24T12:55:26;4.47;;;0.90;;
24617;SDS011;12762;51.730;5.356;2023-04-24T12:57:53;5.23;;;0.97;;
24617;SDS011;12762;51.730;5.356;2023-04-24T13:00:21;4.57;;;1.10;;
24617;SDS011;12762;51.730;5.356;2023-04-24T13:02:48;4.33;;;0.80;;
24617;SDS011;12762;51.730;5.356;2023-04-24T13:05:15;4.93;;;1.20;;
24617;SDS011;12762;51.730;5.356;2023-04-24T13:07:42;4.03;;;1.20;;
24617;SDS011;12762;51.730;5.356;2023-04-24T13:10:12;4.67;;;1.10;;
24617;SDS011;12762;51.730;5.356;2023-04-24T13:12:39;6.83;;;1.03;;
24617;SDS011;12762;51.730;5.356;2023-04-24T13:15:06;3.67;;;1.20;;
24617;SDS011;12762;51.730;5.356;2023-04-24T13:17:33;4.10;;;1.00;;
24617;SDS011;12762;51.730;5.356;2023-04-24T13:20:00;7.00;;;0.93;;
24617;SDS011;12762;51.730;5.356;2023-04-24T13:22:27;4.07;;;0.93;;
24617;SDS011;12762;51.730;5.356;2023-04-24T13:24:54;6.47;;;1.10;;
24617;SDS011;12762;51.730;5.356;2023-04-24T13:27:23;4.53;;;1.13;;
24617;SDS011;12762;51.730;5.356;2023-04-24T13:29:50;6.23;;;1.30;;
24617;SDS011;12762;51.730;5.356;2023-04-24T13:32:17;4.53;;;1.07;;
24617;SDS011;12762;51.730;5.356;2023-04-24T13:34:47;3.37;;;0.93;;
24617;SDS011;12762;51.730;5.356;2023-04-24T13:37:14;6.77;;;1.10;;
24617;SDS011;12762;51.730;5.356;2023-04-24T13:39:41;2.10;;;0.87;;
24617;SDS011;12762;51.730;5.356;2023-04-24T13:42:11;2.30;;;0.97;;
24617;SDS011;12762;51.730;5.356;2023-04-24T13:44:39;2.17;;;0.77;;
24617;SDS011;12762;51.730;5.356;2023-04-24T13:47:06;3.27;;;0.90;;
24617;SDS011;12762;51.730;5.356;2023-04-24T13:49:33;4.23;;;1.03;;
24617;SDS011;12762;51.730;5.356;2023-04-24T13:52:00;1.40;;;0.87;;
24617;SDS011;12762;51.730;5.356;2023-04-24T13:54:30;2.40;;;1.00;;
24617;SDS011;12762;51.730;5.356;2023-04-24T13:56:57;4.47;;;1.47;;
24617;SDS011;12762;51.730;5.356;2023-04-24T13:59:25;3.40;;;1.30;;
24617;SDS011;12762;51.730;5.356;2023-04-24T14:01:52;5.33;;;1.43;;
24617;SDS011;12762;51.730;5.356;2023-04-24T14:04:19;8.20;;;1.80;;
24617;SDS011;12762;51.730;5.356;2023-04-24T14:06:46;6.07;;;1.30;;
24617;SDS011;12762;51.730;5.356;2023-04-24T14:09:13;5.10;;;1.60;;
24617;SDS011;12762;51.730;5.356;2023-04-24T14:11:42;5.57;;;1.40;;
24617;SDS011;12762;51.730;5.356;2023-04-24T14:14:09;5.47;;;1.53;;
24617;SDS011;12762;51.730;5.356;2023-04-24T14:16:36;8.60;;;1.70;;
24617;SDS011;12762;51.730;5.356;2023-04-24T14:19:03;6.73;;;1.80;;
24617;SDS011;12762;51.730;5.356;2023-04-24T14:21:32;5.60;;;1.40;;
24617;SDS011;12762;51.730;5.356;2023-04-24T14:23:59;4.43;;;1.80;;
24617;SDS011;12762;51.730;5.356;2023-04-24T14:26:25;5.43;;;1.90;;
24617;SDS011;12762;51.730;5.356;2023-04-24T14:28:52;8.17;;;2.00;;
24617;SDS011;12762;51.730;5.356;2023-04-24T14:31:32;6.40;;;1.67;;
24617;SDS011;12762;51.730;5.356;2023-04-24T14:33:59;3.57;;;1.67;;
24617;SDS011;12762;51.730;5.356;2023-04-24T14:36:28;5.87;;;1.97;;
24617;SDS011;12762;51.730;5.356;2023-04-24T14:38:56;7.40;;;1.80;;
24617;SDS011;12762;51.730;5.356;2023-04-24T14:41:23;5.80;;;1.43;;
24617;SDS011;12762;51.730;5.356;2023-04-24T14:43:50;4.23;;;1.30;;
24617;SDS011;12762;51.730;5.356;2023-04-24T14:46:17;4.40;;;1.40;;
24617;SDS011;12762;51.730;5.356;2023-04-24T14:48:44;8.37;;;1.60;;
24617;SDS011;12762;51.730;5.356;2023-04-24T14:51:11;7.43;;;1.73;;
24617;SDS011;12762;51.730;5.356;2023-04-24T14:53:38;7.13;;;1.60;;